Time;durP1;ratioP1;P1;durP2;ratioP2;P2;SDS_P1;SDS_P2;PMS_P1;PMS_P2;Temp;Humidity;BMP_temperature;BMP_pressure;BME280_temperature;BME280_humidity;BME280_pressure;Samples;Min_cycle;Max_cycle;Signal;HPM_P1;HPM_P2
2022/09/26 00:01:36;;;;;;;23.30;19.50;;;;;;;10.61;70.95;99658.16;103180;1279;138156;-60
2022/09/26 00:04:15;;;;;;;23.20;18.60;;;;;;;10.63;70.76;99659.88;103453;1279;107987;-63
2022/09/26 00:06:48;;;;;;;23.40;18.00;;;;;;;10.68;70.40;99656.14;103219;1279;139652;-63
2022/09/26 00:09:17;;;;;;;23.90;18.60;;;;;;;10.68;70.40;99652.39;103365;1279;108873;-62
2022/09/26 00:11:45;;;;;;;22.30;17.10;;;;;;;10.60;70.52;99645.79;103491;1279;94705;-61
2022/09/26 00:14:20;;;;;;;21.50;17.30;;;;;;;10.46;70.85;99640.63;103194;1279;138564;-61
2022/09/26 00:16:49;;;;;;;22.80;17.50;;;;;;;10.40;71.23;99638.21;103340;1279;108983;-62
2022/09/26 00:19:17;;;;;;;21.40;16.80;;;;;;;10.40;71.18;99635.20;103306;1279;139112;-61
2022/09/26 00:21:45;;;;;;;24.10;17.90;;;;;;;10.39;71.00;99635.24;103281;1279;109247;-61
2022/09/26 00:24:13;;;;;;;20.30;15.90;;;;;;;10.38;70.67;99633.65;103272;1279;95023;-61
2022/09/26 00:26:41;;;;;;;19.90;15.90;;;;;;;10.37;70.95;99631.90;103189;1279;138996;-62
2022/09/26 00:29:12;;;;;;;20.20;16.70;;;;;;;10.33;70.99;99629.38;103337;1279;107754;-62
2022/09/26 00:31:43;;;;;;;21.40;17.30;;;;;;;10.26;70.95;99629.30;103223;1279;138333;-62
2022/09/26 00:34:14;;;;;;;21.50;16.50;;;;;;;10.19;71.32;99627.05;103378;1279;109038;-62
2022/09/26 00:36:41;;;;;;;19.90;15.50;;;;;;;10.15;71.36;99623.83;103224;1279;138979;-62
2022/09/26 00:39:12;;;;;;;18.40;15.60;;;;;;;10.08;71.37;99623.73;103521;1279;96538;-61
2022/09/26 00:41:40;;;;;;;21.00;16.90;;;;;;;10.05;71.54;99622.61;103360;1279;108848;-61
2022/09/26 00:44:53;;;;;;;21.20;16.30;;;;;;;10.07;71.42;99622.17;103297;1279;138381;-61
2022/09/26 00:47:43;;;;;;;20.70;15.30;;;;;;;10.13;71.10;99620.70;103394;1279;109889;-62
2022/09/26 00:50:21;;;;;;;19.80;15.50;;;;;;;10.19;71.11;99618.55;103169;1279;139031;-62
2022/09/26 00:52:59;;;;;;;19.90;16.30;;;;;;;10.10;71.16;99623.88;103288;1279;95066;-62
2022/09/26 00:55:35;;;;;;;19.60;16.40;;;;;;;10.02;71.25;99626.61;103145;1279;138105;-63
2022/09/26 00:58:09;;;;;;;19.90;15.10;;;;;;;9.97;71.40;99626.25;103304;1279;99462;-62
2022/09/26 01:00:42;;;;;;;19.00;15.30;;;;;;;9.88;71.49;99630.50;103224;1279;138892;-61
2022/09/26 01:03:10;;;;;;;19.30;15.80;;;;;;;9.83;72.06;99629.96;103269;1279;94421;-63
2022/09/26 01:05:39;;;;;;;20.00;15.10;;;;;;;9.89;71.71;99626.73;103407;1279;95042;-61
2022/09/26 01:08:08;;;;;;;18.90;14.60;;;;;;;9.97;71.14;99628.21;103219;1278;138407;-62
2022/09/26 01:10:37;;;;;;;21.10;15.50;;;;;;;10.01;70.62;99623.81;103301;1280;99122;-60
2022/09/26 01:13:07;;;;;;;19.00;15.40;;;;;;;9.98;71.18;99621.80;103108;1281;138377;-61
2022/09/26 01:15:35;;;;;;;19.50;15.30;;;;;;;9.93;71.52;99621.80;103278;1279;94897;-62
2022/09/26 01:18:06;;;;;;;18.50;13.90;;;;;;;9.94;71.51;99618.92;103368;1281;94793;-61
2022/09/26 01:20:34;;;;;;;18.80;14.50;;;;;;;9.95;71.44;99616.77;103221;1279;138682;-61
2022/09/26 01:23:27;;;;;;;18.50;15.30;;;;;;;9.91;71.45;99617.96;103275;1279;98412;-62
2022/09/26 01:26:13;;;;;;;20.10;14.60;;;;;;;9.86;71.46;99610.52;103211;1279;138419;-62
2022/09/26 01:28:44;;;;;;;17.20;13.40;;;;;;;9.88;71.29;99606.89;103335;1279;94790;-62
2022/09/26 01:32:47;;;;;;;17.80;14.10;;;;;;;9.94;70.83;99607.92;103214;1279;138863;-61
2022/09/26 01:35:03;;;;;;;18.90;14.50;;;;;;;9.97;70.41;99603.02;103308;1279;109015;-63
2022/09/26 01:37:58;;;;;;;18.70;14.60;;;;;;;9.93;70.60;99602.29;103172;1279;138025;-62
2022/09/26 01:40:56;;;;;;;18.20;14.30;;;;;;;9.85;71.06;99601.34;103166;1281;108785;-63
2022/09/26 01:43:42;;;;;;;19.10;14.00;;;;;;;9.84;71.05;99600.49;102922;1279;141213;-61
2022/09/26 01:46:41;;;;;;;19.20;15.00;;;;;;;9.86;70.84;99595.79;103233;1280;94751;-62
2022/09/26 01:49:19;;;;;;;17.90;14.20;;;;;;;9.77;71.16;99587.98;103144;1280;138363;-61
2022/09/26 01:51:57;;;;;;;17.20;13.50;;;;;;;9.74;71.14;99588.78;103392;1279;99516;-62
2022/09/26 01:54:38;;;;;;;17.70;14.30;;;;;;;9.73;70.89;99590.08;103210;1281;109047;-62
2022/09/26 01:57:13;;;;;;;19.30;15.10;;;;;;;9.66;71.15;99591.20;103367;1279;95240;-61
2022/09/26 01:59:50;;;;;;;19.00;14.90;;;;;;;9.58;71.21;99588.30;103335;1280;94404;-61
2022/09/26 02:02:26;;;;;;;18.30;14.10;;;;;;;9.54;71.40;99595.52;103281;1279;138498;-62
2022/09/26 02:05:01;;;;;;;17.50;13.30;;;;;;;9.63;71.06;99592.74;103500;1279;100898;-61
2022/09/26 02:07:47;;;;;;;18.30;14.50;;;;;;;9.69;70.25;99597.66;103326;1279;137610;-63
2022/09/26 02:10:21;;;;;;;19.50;15.40;;;;;;;9.70;70.16;99598.32;103164;1281;94623;-62
2022/09/26 02:12:56;;;;;;;18.70;14.90;;;;;;;9.69;70.41;99596.78;103246;1280;139933;-62
2022/09/26 02:15:26;;;;;;;19.40;14.90;;;;;;;9.57;70.64;99596.66;103163;1282;109061;-62
2022/09/26 02:18:06;;;;;;;18.10;14.30;;;;;;;9.48;71.10;99595.37;103604;1279;99453;-63
2022/09/26 02:20:37;;;;;;;19.20;15.00;;;;;;;9.53;70.54;99593.95;103242;1279;138526;-61
2022/09/26 02:23:05;;;;;;;19.40;15.50;;;;;;;9.52;70.42;99591.00;103305;1279;94341;-63
2022/09/26 02:25:33;;;;;;;18.60;14.50;;;;;;;9.52;70.62;99591.52;103077;1279;138743;-60
2022/09/26 02:28:03;;;;;;;19.00;14.90;;;;;;;9.43;70.90;99590.23;103272;1279;107967;-62
2022/09/26 02:30:35;;;;;;;20.10;15.30;;;;;;;9.39;71.23;99588.42;103049;1281;138731;-63
2022/09/26 02:33:03;;;;;;;18.70;15.40;;;;;;;9.40;71.30;99588.20;103460;1279;108814;-62
2022/09/26 02:38:23;;;;;;;18.50;14.60;;;;;;;9.45;71.12;99589.82;103065;1281;140058;-63
2022/09/26 02:41:21;;;;;;;18.10;13.60;;;;;;;9.43;71.30;99591.65;103286;1280;108080;-61
2022/09/26 02:44:04;;;;;;;20.30;15.20;;;;;;;9.32;71.29;99586.01;103329;1279;138229;-65
2022/09/26 02:46:51;;;;;;;18.90;14.80;;;;;;;9.28;71.57;99585.26;103377;1281;108849;-62
2022/09/26 02:49:50;;;;;;;19.10;14.90;;;;;;;9.31;71.50;99584.08;103123;1279;138870;-62
2022/09/26 02:52:31;;;;;;;18.80;14.40;;;;;;;9.35;71.17;99586.23;103252;1279;95100;-62
2022/09/26 02:55:24;;;;;;;18.10;14.50;;;;;;;9.38;70.92;99585.09;103160;1279;138242;-61
2022/09/26 02:58:16;;;;;;;19.20;15.10;;;;;;;9.39;70.74;99585.77;103514;1279;99307;-60
2022/09/26 03:00:52;;;;;;;18.70;15.40;;;;;;;9.37;70.79;99585.31;103050;1280;138817;-64
2022/09/26 03:03:32;;;;;;;19.50;15.20;;;;;;;9.30;71.13;99581.12;103257;1279;94833;-62
2022/09/26 03:06:05;;;;;;;19.50;14.70;;;;;;;9.29;71.33;99579.02;103265;1281;94616;-64
2022/09/26 03:08:41;;;;;;;18.20;14.50;;;;;;;9.28;71.00;99579.95;103142;1280;139326;-61
2022/09/26 03:11:12;;;;;;;20.10;15.60;;;;;;;9.33;71.30;99578.36;103367;1279;98999;-64
2022/09/26 03:13:41;;;;;;;19.80;15.30;;;;;;;9.33;71.15;99580.66;103090;1281;138527;-62
2022/09/26 03:16:12;;;;;;;20.20;16.30;;;;;;;9.31;71.11;99578.77;103270;1281;94717;-64
2022/09/26 03:19:09;;;;;;;19.80;14.90;;;;;;;9.26;71.52;99577.69;103187;1279;139035;-65
2022/09/26 03:21:37;;;;;;;19.90;15.80;;;;;;;9.23;72.23;99579.23;103248;1279;108516;-64
2022/09/26 03:24:05;;;;;;;20.70;16.80;;;;;;;9.13;73.22;99577.43;103201;1281;99373;-63
2022/09/26 03:26:34;;;;;;;21.00;16.90;;;;;;;9.10;73.34;99568.33;103051;1281;137965;-63
2022/09/26 03:29:02;;;;;;;20.60;16.90;;;;;;;9.15;73.22;99566.03;103302;1279;95047;-63
2022/09/26 03:31:33;;;;;;;21.40;17.00;;;;;;;9.07;74.01;99566.13;103111;1279;138740;-62
2022/09/26 03:34:04;;;;;;;20.90;16.90;;;;;;;9.07;74.15;99565.41;103222;1279;106543;-62
2022/09/26 03:36:32;;;;;;;19.20;15.90;;;;;;;9.08;74.39;99561.16;103240;1279;138912;-62
2022/09/26 03:39:02;;;;;;;20.90;16.70;;;;;;;9.15;73.56;99559.13;103412;1279;107882;-61
2022/09/26 03:41:36;;;;;;;21.10;16.60;;;;;;;9.17;73.68;99556.73;103270;1279;94911;-62
2022/09/26 03:44:24;;;;;;;19.50;16.20;;;;;;;9.19;73.50;99554.91;103180;1281;138699;-61
2022/09/26 03:47:14;;;;;;;20.10;15.90;;;;;;;9.24;73.48;99551.56;103100;1280;107958;-62
2022/09/26 03:49:44;;;;;;;21.20;16.40;;;;;;;9.31;72.80;99549.39;103217;1279;138541;-62
2022/09/26 03:52:12;;;;;;;19.60;15.40;;;;;;;9.29;72.60;99550.85;103250;1279;108908;-62
2022/09/26 03:54:41;;;;;;;17.80;15.20;;;;;;;9.32;72.28;99550.58;103088;1281;139157;-62
2022/09/26 03:57:14;;;;;;;19.40;15.40;;;;;;;9.31;71.90;99548.83;103268;1279;94496;-62
2022/09/26 03:59:48;;;;;;;20.70;15.90;;;;;;;9.24;72.27;99548.20;103299;1279;108377;-63
2022/09/26 04:02:18;;;;;;;20.10;16.40;;;;;;;9.17;72.37;99549.50;103243;1279;139096;-61
2022/09/26 04:04:48;;;;;;;19.00;15.50;;;;;;;9.07;72.57;99546.99;103143;1281;108790;-63
2022/09/26 04:07:15;;;;;;;19.60;15.80;;;;;;;9.01;72.90;99546.82;102944;1281;138540;-62
2022/09/26 04:09:43;;;;;;;21.20;16.60;;;;;;;9.03;72.77;99546.08;103200;1281;95711;-61
2022/09/26 04:12:11;;;;;;;18.70;15.60;;;;;;;9.06;72.66;99544.20;103274;1279;108268;-62
2022/09/26 04:14:43;;;;;;;19.60;16.10;;;;;;;9.10;72.69;99546.37;103168;1280;138830;-63
2022/09/26 04:17:12;;;;;;;20.10;16.00;;;;;;;9.11;72.57;99548.11;103265;1279;108890;-61
2022/09/26 04:19:43;;;;;;;17.70;14.90;;;;;;;9.08;72.32;99549.11;103131;1279;138844;-62
2022/09/26 04:22:11;;;;;;;18.90;15.50;;;;;;;9.09;72.43;99546.05;103477;1281;94408;-61
2022/09/26 04:24:40;;;;;;;21.50;16.30;;;;;;;9.11;71.93;99546.52;103198;1281;138089;-62
2022/09/26 04:27:08;;;;;;;20.30;15.70;;;;;;;9.05;72.12;99546.55;103338;1280;98756;-62
2022/09/26 04:29:36;;;;;;;19.90;15.90;;;;;;;8.97;72.31;99543.61;103279;1280;109941;-61
2022/09/26 04:32:09;;;;;;;18.00;14.80;;;;;;;8.95;72.62;99542.96;103180;1280;139233;-61
2022/09/26 04:34:44;;;;;;;19.30;16.00;;;;;;;8.95;72.56;99542.44;103321;1280;94720;-61
2022/09/26 04:37:12;;;;;;;19.70;16.00;;;;;;;8.86;73.01;99540.61;103251;1280;138709;-62
2022/09/26 04:39:40;;;;;;;18.80;15.30;;;;;;;8.73;73.52;99540.14;103293;1281;99384;-61
2022/09/26 04:42:09;;;;;;;19.80;15.70;;;;;;;8.66;74.40;99539.31;103355;1279;108739;-62
2022/09/26 04:44:36;;;;;;;17.70;14.60;;;;;;;8.66;74.77;99532.93;103221;1280;139937;-64
2022/09/26 04:47:04;;;;;;;17.80;15.10;;;;;;;8.78;74.46;99534.33;103159;1281;94322;-62
2022/09/26 04:49:52;;;;;;;18.00;14.60;;;;;;;8.89;73.79;99538.04;103250;1280;137899;-64
2022/09/26 04:52:20;;;;;;;18.30;14.40;;;;;;;8.94;73.51;99533.45;103305;1281;99349;-62
2022/09/26 04:54:48;;;;;;;18.30;14.80;;;;;;;8.93;73.56;99533.84;103248;1281;138977;-61
2022/09/26 04:57:16;;;;;;;19.30;15.70;;;;;;;8.87;73.69;99530.50;103206;1281;94345;-63
2022/09/26 04:59:46;;;;;;;19.90;16.10;;;;;;;8.79;74.10;99529.84;103314;1280;94485;-63
2022/09/26 05:02:16;;;;;;;19.10;15.10;;;;;;;8.77;74.19;99526.05;103111;1280;138447;-62
2022/09/26 05:04:46;;;;;;;19.90;15.80;;;;;;;8.78;74.45;99531.33;103273;1281;98572;-65
2022/09/26 05:07:15;;;;;;;19.60;15.60;;;;;;;8.71;74.84;99532.08;103249;1280;138700;-62
2022/09/26 05:09:43;;;;;;;20.70;16.30;;;;;;;8.66;74.92;99534.18;103209;1280;94689;-59
2022/09/26 05:12:14;;;;;;;20.10;16.20;;;;;;;8.56;75.58;99532.76;103288;1281;94370;-62
2022/09/26 05:14:44;;;;;;;20.00;15.20;;;;;;;8.41;76.13;99533.70;103061;1281;139449;-61
2022/09/26 05:17:12;;;;;;;22.00;16.50;;;;;;;8.33;76.39;99530.60;103238;1281;98504;-64
2022/09/26 05:19:41;;;;;;;20.50;16.30;;;;;;;8.31;76.77;99530.48;103039;1281;138551;-62
2022/09/26 05:22:36;;;;;;;22.10;17.60;;;;;;;8.32;76.93;99531.67;103112;1281;94777;-60
2022/09/26 05:27:52;;;;;;;20.70;16.40;;;;;;;8.30;77.31;99526.96;103323;1279;107920;-63
2022/09/26 05:30:20;;;;;;;19.10;15.30;;;;;;;8.36;77.60;99528.55;103476;1280;99503;-61
2022/09/26 05:32:48;;;;;;;20.50;16.00;;;;;;;8.54;77.20;99524.48;102980;1280;138644;-61
2022/09/26 05:35:17;;;;;;;22.30;16.20;;;;;;;8.64;76.79;99522.38;103599;1281;94408;-63
2022/09/26 05:37:44;;;;;;;23.10;17.50;;;;;;;8.60;76.57;99518.09;103039;1281;138883;-60
2022/09/26 05:43:01;;;;;;;20.50;16.00;;;;;;;8.61;77.01;99513.13;103220;1281;139077;-61
2022/09/26 05:45:32;;;;;;;22.10;16.70;;;;;;;8.62;76.93;99509.38;103262;1281;108808;-61
2022/09/26 05:48:02;;;;;;;72.70;57.30;;;;;;;8.65;76.98;99510.33;103196;1280;94856;-61
2022/09/26 05:50:30;;;;;;;62.20;43.30;;;;;;;8.64;77.29;99506.83;103039;1281;138891;-63
2022/09/26 05:52:59;;;;;;;24.90;18.30;;;;;;;8.80;77.20;99502.23;103362;1279;107404;-60
2022/09/26 05:55:28;;;;;;;21.40;16.80;;;;;;;8.98;76.80;99503.40;103202;1280;138902;-61
2022/09/26 05:57:59;;;;;;;21.60;16.80;;;;;;;9.10;76.47;99500.16;103214;1280;108917;-61
2022/09/26 06:00:50;;;;;;;21.00;16.20;;;;;;;9.22;76.11;99503.64;103085;1279;138389;-61
2022/09/26 06:03:18;;;;;;;21.60;16.00;;;;;;;9.20;76.22;99503.36;103223;1281;95245;-61
2022/09/26 06:05:54;;;;;;;20.20;15.90;;;;;;;9.15;76.87;99501.91;103316;1279;108287;-62
2022/09/26 06:08:29;;;;;;;24.20;18.00;;;;;;;9.08;77.20;99507.14;103110;1281;138968;-61
2022/09/26 06:11:28;;;;;;;22.90;17.10;;;;;;;9.01;77.62;99511.77;103413;1279;109518;-62
2022/09/26 06:13:59;;;;;;;22.80;16.20;;;;;;;9.01;77.57;99510.55;103834;1279;138716;-62
2022/09/26 06:16:28;;;;;;;22.30;16.70;;;;;;;9.02;77.63;99503.80;103372;1281;95334;-58
2022/09/26 06:18:56;;;;;;;24.50;17.90;;;;;;;8.99;77.57;99507.42;103132;1281;139422;-62
2022/09/26 06:21:24;;;;;;;22.50;18.30;;;;;;;9.03;77.96;99507.10;103333;1281;99390;-63
2022/09/26 06:23:56;;;;;;;23.30;16.90;;;;;;;9.17;78.26;99511.08;103136;1281;108619;-61
2022/09/26 06:26:27;;;;;;;23.30;16.80;;;;;;;9.24;77.67;99512.77;103118;1281;139066;-62
2022/09/26 06:28:58;;;;;;;22.70;18.10;;;;;;;9.28;77.69;99514.92;103239;1281;95259;-62
2022/09/26 06:31:29;;;;;;;23.20;17.70;;;;;;;9.22;77.02;99511.41;103275;1280;138432;-62
2022/09/26 06:34:11;;;;;;;24.90;19.00;;;;;;;9.12;77.30;99508.42;103273;1281;99652;-62
2022/09/26 06:36:58;;;;;;;23.60;17.60;;;;;;;9.18;77.69;99510.13;103019;1281;139499;-62
2022/09/26 06:39:34;;;;;;;23.50;17.60;;;;;;;9.19;77.52;99509.37;103168;1280;96369;-62
2022/09/26 06:42:06;;;;;;;25.30;18.50;;;;;;;9.24;77.91;99515.80;103353;1281;96136;-64
2022/09/26 06:44:35;;;;;;;23.00;16.90;;;;;;;9.25;77.96;99513.45;103326;1281;139098;-63
2022/09/26 06:47:30;;;;;;;26.00;18.80;;;;;;;9.29;78.04;99512.26;102843;1281;99618;-62
2022/09/26 06:50:16;;;;;;;25.10;18.60;;;;;;;9.43;78.20;99513.70;103187;1281;138878;-61
2022/09/26 06:52:50;;;;;;;31.40;22.10;;;;;;;9.54;78.11;99518.27;103230;1280;96067;-62
2022/09/26 06:55:18;;;;;;;25.90;18.80;;;;;;;9.69;78.39;99517.70;103176;1281;139003;-61
2022/09/26 06:57:46;;;;;;;25.00;18.80;;;;;;;9.85;77.68;99515.54;103264;1279;109874;-62
2022/09/26 07:00:15;;;;;;;27.90;19.90;;;;;;;9.86;77.48;99515.16;103204;1281;99877;-61
2022/09/26 07:03:04;;;;;;;25.00;18.70;;;;;;;10.03;77.60;99519.13;102973;1281;108865;-60
2022/09/26 07:06:02;;;;;;;24.90;17.60;;;;;;;10.26;77.46;99524.80;103075;1281;95780;-60
2022/09/26 07:08:30;;;;;;;24.20;17.50;;;;;;;10.36;77.32;99524.95;103118;1281;139885;-61
2022/09/26 07:11:26;;;;;;;25.70;19.30;;;;;;;10.35;76.68;99522.32;101734;1281;109300;-63
2022/09/26 07:14:16;;;;;;;25.30;18.30;;;;;;;10.38;77.16;99521.67;102821;1281;140238;-62
2022/09/26 07:16:51;;;;;;;25.10;18.30;;;;;;;10.44;76.96;99522.20;102890;1279;108926;-65
2022/09/26 07:19:43;;;;;;;26.40;19.20;;;;;;;10.45;76.97;99526.02;102606;1281;138799;-63
2022/09/26 07:22:31;;;;;;;27.50;20.70;;;;;;;10.44;77.08;99522.54;103031;1279;95894;-62
2022/09/26 07:24:59;;;;;;;27.10;20.80;;;;;;;10.56;77.27;99521.33;102833;1281;139885;-62
2022/09/26 07:27:28;;;;;;;28.50;20.90;;;;;;;10.75;77.19;99520.19;103020;1280;99330;-62
2022/09/26 07:29:57;;;;;;;26.00;19.40;;;;;;;10.94;76.91;99522.60;102969;1279;110251;-62
2022/09/26 07:32:25;;;;;;;27.60;20.80;;;;;;;11.13;76.72;99523.95;102845;1280;139342;-64
2022/09/26 07:35:04;;;;;;;25.90;19.60;;;;;;;11.20;76.20;99520.98;103071;1279;95309;-63
2022/09/26 07:37:32;;;;;;;27.20;19.70;;;;;;;11.18;76.19;99516.63;103141;1281;138330;-61
2022/09/26 07:40:01;;;;;;;26.00;19.90;;;;;;;11.15;76.16;99522.10;103298;1278;98924;-62
2022/09/26 07:42:31;;;;;;;27.00;20.10;;;;;;;11.12;76.54;99523.98;103027;1281;139261;-61
2022/09/26 07:44:59;;;;;;;27.20;19.80;;;;;;;11.13;76.91;99515.41;102917;1280;95782;-62
2022/09/26 07:50:56;;;;;;;28.60;21.20;;;;;;;11.39;77.64;99517.33;102631;1279;139971;-61
2022/09/26 07:53:37;;;;;;;25.80;19.70;;;;;;;11.59;77.26;99516.98;103079;1281;98538;-61
2022/09/26 07:56:33;;;;;;;25.10;19.50;;;;;;;11.75;77.19;99513.60;102861;1281;139233;-63
2022/09/26 07:59:21;;;;;;;27.10;20.00;;;;;;;11.92;77.13;99511.06;103063;1280;95788;-63
2022/09/26 08:02:24;;;;;;;28.20;20.20;;;;;;;12.10;76.72;99505.25;102673;1280;139374;-61
2022/09/26 08:04:54;;;;;;;25.30;18.80;;;;;;;12.29;76.67;99502.94;107075;1279;110581;-62
2022/09/26 08:07:29;;;;;;;25.70;19.70;;;;;;;12.43;76.01;99505.83;106911;1278;139063;-62
2022/09/26 08:10:19;;;;;;;25.40;20.30;;;;;;;12.62;75.77;99500.48;106951;1281;108767;-61
2022/09/26 08:13:06;;;;;;;25.20;19.80;;;;;;;12.82;75.69;99496.80;105660;1279;139109;-62
2022/09/26 08:15:42;;;;;;;25.60;20.00;;;;;;;13.04;75.61;99492.12;102892;1279;95312;-62
2022/09/26 08:18:18;;;;;;;23.80;18.80;;;;;;;13.26;74.79;99491.16;103106;1279;109692;-62
2022/09/26 08:20:46;;;;;;;25.50;19.60;;;;;;;13.42;74.25;99497.18;102977;1279;139160;-62
2022/09/26 08:23:16;;;;;;;24.40;18.90;;;;;;;13.53;73.99;99497.47;103041;1281;107735;-62
2022/09/26 08:25:47;;;;;;;25.40;20.00;;;;;;;13.68;73.78;99491.73;102922;1280;138723;-63
2022/09/26 08:28:36;;;;;;;23.70;19.30;;;;;;;13.85;73.24;99489.17;103003;1278;95193;-61
2022/09/26 08:31:05;;;;;;;25.40;20.30;;;;;;;13.96;73.01;99492.31;103269;1277;140015;-62
2022/09/26 08:33:37;;;;;;;23.10;18.30;;;;;;;14.13;73.02;99489.06;103219;1280;99497;-61
2022/09/26 08:36:08;;;;;;;24.80;19.50;;;;;;;14.35;72.25;99491.77;103275;1281;108867;-61
2022/09/26 08:38:59;;;;;;;23.80;19.40;;;;;;;14.53;71.96;99491.80;102967;1279;98173;-61
2022/09/26 08:42:01;;;;;;;22.40;17.20;;;;;;;14.75;71.45;99493.82;103060;1279;95703;-63
2022/09/26 08:44:52;;;;;;;22.20;18.60;;;;;;;14.93;70.86;99489.92;102162;1279;139446;-62
2022/09/26 08:48:12;;;;;;;25.10;20.10;;;;;;;15.13;69.85;99480.67;102387;1279;99289;-62
2022/09/26 08:50:52;;;;;;;24.00;18.70;;;;;;;15.89;68.55;99475.84;102933;1279;138781;-64
2022/09/26 08:53:26;;;;;;;21.40;17.80;;;;;;;17.16;64.98;99470.94;103047;1281;95331;-58
2022/09/26 08:55:57;;;;;;;22.90;17.40;;;;;;;17.92;61.78;99474.52;103018;1279;138928;-61
2022/09/26 08:58:33;;;;;;;21.30;17.40;;;;;;;18.42;60.15;99470.54;103019;1280;110215;-63
2022/09/26 09:01:08;;;;;;;21.90;17.90;;;;;;;19.30;58.21;99462.70;103233;1279;138872;-62
2022/09/26 09:04:15;;;;;;;20.90;17.50;;;;;;;20.22;55.29;99465.15;103015;1281;107759;-62
2022/09/26 09:06:43;;;;;;;22.30;18.00;;;;;;;20.52;54.07;99457.98;102885;1279;138725;-63
2022/09/26 09:09:16;;;;;;;21.40;18.20;;;;;;;20.44;55.31;99452.73;103428;1279;95693;-64
2022/09/26 09:12:07;;;;;;;20.70;17.30;;;;;;;20.61;53.61;99449.91;102769;1279;109754;-62
2022/09/26 09:14:54;;;;;;;18.70;15.90;;;;;;;20.33;53.61;99448.98;103068;1278;139624;-61
2022/09/26 09:18:23;;;;;;;20.00;17.60;;;;;;;20.01;54.82;99447.39;103046;1281;107127;-62
2022/09/26 09:21:13;;;;;;;19.30;16.70;;;;;;;20.25;54.10;99444.36;103089;1279;95255;-65
2022/09/26 09:24:36;;;;;;;19.00;15.70;;;;;;;20.41;54.16;99436.73;102934;1281;95228;-63
2022/09/26 09:27:23;;;;;;;18.50;15.70;;;;;;;21.58;51.32;99436.78;103067;1279;109741;-61
2022/09/26 09:30:37;;;;;;;19.90;16.30;;;;;;;22.92;49.00;99436.72;103109;1279;98909;-64
2022/09/26 09:33:40;;;;;;;16.90;14.70;;;;;;;23.67;47.18;99431.69;103074;1279;108985;-62
2022/09/26 09:36:27;;;;;;;16.20;14.40;;;;;;;24.85;44.22;99432.91;103043;1278;95282;-65
2022/09/26 09:39:25;;;;;;;16.70;14.60;;;;;;;25.97;41.40;99430.70;103093;1279;96157;-63
2022/09/26 09:42:08;;;;;;;16.60;14.40;;;;;;;26.94;40.63;99428.02;103092;1279;109669;-63
2022/09/26 09:44:53;;;;;;;15.50;13.60;;;;;;;27.74;38.25;99424.64;103068;1279;138849;-62
2022/09/26 09:47:21;;;;;;;16.80;14.10;;;;;;;28.40;36.91;99422.45;103145;1279;108951;-62
2022/09/26 09:49:50;;;;;;;16.30;13.80;;;;;;;28.78;36.02;99417.33;102981;1279;138887;-64
2022/09/26 09:52:30;;;;;;;16.60;13.20;;;;;;;29.28;34.86;99416.55;103066;1279;95223;-63
2022/09/26 09:55:07;;;;;;;14.80;13.30;;;;;;;29.53;34.30;99419.77;102949;1279;138983;-64
2022/09/26 09:57:50;;;;;;;15.80;13.60;;;;;;;30.21;34.65;99424.14;103004;1280;99943;-63
2022/09/26 10:00:21;;;;;;;15.10;13.00;;;;;;;30.80;32.18;99419.69;103137;1279;108705;-64
2022/09/26 10:03:01;;;;;;;15.70;14.00;;;;;;;30.69;32.50;99424.82;103191;1279;95313;-63
2022/09/26 10:05:45;;;;;;;13.90;12.40;;;;;;;30.92;32.49;99424.45;103261;1281;95286;-63
2022/09/26 10:08:35;;;;;;;15.30;12.90;;;;;;;31.42;31.59;99421.89;102860;1281;138850;-63
2022/09/26 10:11:22;;;;;;;14.80;12.30;;;;;;;31.11;31.14;99422.77;103048;1281;99175;-64
2022/09/26 10:14:04;;;;;;;14.90;12.10;;;;;;;31.66;31.86;99418.74;102968;1279;138344;-64
2022/09/26 10:17:08;;;;;;;13.30;11.90;;;;;;;30.89;30.85;99421.90;103087;1279;95869;-63
2022/09/26 10:19:55;;;;;;;15.00;12.80;;;;;;;28.47;34.00;99422.00;103009;1279;138234;-65
2022/09/26 10:22:35;;;;;;;15.20;11.90;;;;;;;27.06;36.81;99423.08;103005;1279;109264;-65
2022/09/26 10:25:14;;;;;;;14.70;12.20;;;;;;;26.20;38.19;99423.83;103144;1279;139304;-63
2022/09/26 10:27:53;;;;;;;16.50;12.20;;;;;;;26.01;39.18;99421.16;102991;1280;108161;-62
2022/09/26 10:30:30;;;;;;;12.80;9.80;;;;;;;27.13;37.12;99415.22;102985;1279;95242;-62
2022/09/26 10:33:24;;;;;;;12.40;9.00;;;;;;;27.57;36.04;99409.70;103139;1280;96178;-62
2022/09/26 10:36:06;;;;;;;11.40;8.10;;;;;;;27.74;35.40;99407.48;102701;1281;110040;-62
2022/09/26 10:40:43;;;;;;;10.30;7.80;;;;;;;26.44;35.90;99409.58;103070;1279;139571;-61
2022/09/26 10:41:39;;;;;;;10.80;8.00;;;;;;;25.28;38.14;99408.58;103310;1279;107403;-63
2022/09/26 10:44:21;;;;;;;12.00;8.40;;;;;;;24.46;39.12;99410.69;103080;1280;139058;-61
2022/09/26 10:47:09;;;;;;;12.10;8.40;;;;;;;23.74;40.58;99410.10;102978;1279;96248;-63
2022/09/26 10:50:05;;;;;;;10.40;8.20;;;;;;;23.08;41.24;99413.34;102851;1281;138276;-61
2022/09/26 10:53:14;;;;;;;12.20;8.50;;;;;;;22.54;42.94;99419.05;102181;1287;99443;-64
2022/09/26 10:55:50;;;;;;;11.40;7.20;;;;;;;22.20;43.38;99412.86;102150;1287;138222;-65
2022/09/26 10:58:22;;;;;;;10.30;7.10;;;;;;;21.94;42.62;99414.51;102558;1281;95260;-65
2022/09/26 11:00:53;;;;;;;9.50;7.10;;;;;;;21.61;42.99;99410.69;102890;1279;138820;-63
2022/09/26 11:03:33;;;;;;;11.00;6.80;;;;;;;21.26;43.34;99406.89;102763;1278;107917;-63
2022/09/26 11:06:39;;;;;;;9.60;6.60;;;;;;;20.93;44.45;99405.06;102913;1279;99512;-62
2022/09/26 11:09:26;;;;;;;8.90;6.70;;;;;;;20.60;44.11;99406.66;102980;1281;108805;-62
2022/09/26 11:12:29;;;;;;;10.40;7.20;;;;;;;20.30;44.77;99404.82;102919;1279;95814;-63
2022/09/26 11:15:07;;;;;;;11.50;7.30;;;;;;;20.12;45.62;99406.16;103418;1279;95235;-62
2022/09/26 11:17:42;;;;;;;11.20;8.10;;;;;;;20.00;46.30;99402.98;102997;1279;111447;-63
2022/09/26 11:20:19;;;;;;;11.00;7.40;;;;;;;19.99;48.12;99406.48;102969;1281;138488;-64
2022/09/26 11:22:59;;;;;;;10.60;7.90;;;;;;;19.80;47.30;99402.92;103212;1279;108836;-63
2022/09/26 11:25:36;;;;;;;11.70;8.10;;;;;;;19.68;47.20;99399.06;104024;1279;138610;-62
2022/09/26 11:28:14;;;;;;;13.30;8.60;;;;;;;19.64;47.62;99396.31;102982;1277;96141;-64
2022/09/26 11:31:04;;;;;;;12.50;8.20;;;;;;;19.51;49.00;99397.33;102457;1281;139828;-62
2022/09/26 11:33:33;;;;;;;11.10;7.50;;;;;;;19.44;48.88;99392.53;103512;1281;98658;-62
2022/09/26 11:37:02;;;;;;;10.60;8.10;;;;;;;19.32;48.08;99390.71;102642;1279;108977;-64
2022/09/26 11:39:42;;;;;;;12.50;8.20;;;;;;;19.33;48.97;99382.16;103436;1279;95680;-63
2022/09/26 11:42:23;;;;;;;11.00;7.50;;;;;;;19.30;48.71;99381.92;102740;1279;95149;-64
2022/09/26 11:44:58;;;;;;;11.50;8.20;;;;;;;19.18;49.51;99382.09;102575;1279;138068;-64
2022/09/26 11:48:05;;;;;;;10.20;7.70;;;;;;;19.10;50.12;99376.43;102981;1278;99510;-65
2022/09/26 11:51:04;;;;;;;9.60;7.70;;;;;;;18.99;48.56;99375.86;102712;1279;138010;-63
2022/09/26 11:53:57;;;;;;;10.50;7.10;;;;;;;18.87;48.31;99373.71;102889;1279;96040;-65
2022/09/26 11:56:52;;;;;;;10.30;7.30;;;;;;;18.78;49.08;99367.86;102941;1279;137996;-63
2022/09/26 11:59:57;;;;;;;10.30;7.20;;;;;;;18.85;50.18;99367.69;103252;1279;109729;-63
2022/09/26 12:03:03;;;;;;;11.60;8.70;;;;;;;18.88;49.88;99365.13;102960;1279;138342;-64
2022/09/26 12:06:03;;;;;;;12.70;9.30;;;;;;;18.89;50.60;99361.64;102972;1279;108966;-63
2022/09/26 12:08:43;;;;;;;11.70;9.10;;;;;;;18.92;51.01;99363.05;103131;1279;138332;-64
2022/09/26 12:11:27;;;;;;;11.10;8.40;;;;;;;18.83;51.40;99362.09;103092;1279;95223;-62
2022/09/26 12:14:01;;;;;;;11.80;8.90;;;;;;;18.74;50.97;99362.84;102770;1281;138666;-62